createdAt,value
2016-06-27T00:00:02.283Z,0
2016-06-27T00:01:02.953Z,0
2016-06-27T00:02:03.535Z,0
2016-06-27T00:03:02.326Z,0
2016-06-27T00:04:03.558Z,0
2016-06-27T00:05:02.329Z,0
2016-06-27T00:06:02.343Z,0
2016-06-27T00:07:03.343Z,0
2016-06-27T00:08:03.584Z,0
2016-06-27T00:09:02.959Z,0
2016-06-27T00:10:02.349Z,0
2016-06-27T00:11:03.359Z,0
2016-06-27T00:12:02.366Z,0
2016-06-27T00:13:02.968Z,0
2016-06-27T00:14:02.990Z,0
2016-06-27T00:15:02.381Z,0
2016-06-27T00:16:02.993Z,0
2016-06-27T00:17:03.031Z,0
2016-06-27T00:18:03.609Z,0
2016-06-27T00:19:02.398Z,0
2016-06-27T00:20:02.396Z,0
2016-06-27T00:21:03.030Z,0
2016-06-27T00:22:04.096Z,0
2016-06-27T00:23:02.397Z,0
2016-06-27T00:24:02.403Z,0
2016-06-27T00:25:03.022Z,0
2016-06-27T00:26:03.654Z,0
2016-06-27T00:27:03.671Z,0
2016-06-27T00:28:02.421Z,0
2016-06-27T00:29:03.686Z,0
2016-06-27T00:30:03.081Z,0
2016-06-27T00:31:03.135Z,0
2016-06-27T00:32:03.730Z,0
2016-06-27T00:33:02.623Z,0
2016-06-27T00:34:03.067Z,0
2016-06-27T00:35:03.078Z,0
2016-06-27T00:36:03.139Z,0
2016-06-27T00:37:02.542Z,0
2016-06-27T00:38:02.557Z,0
2016-06-27T00:39:02.480Z,0
2016-06-27T00:40:02.596Z,0
2016-06-27T00:41:02.485Z,0
2016-06-27T00:42:05.127Z,0
2016-06-27T00:43:02.565Z,0
2016-06-27T00:44:03.745Z,0
2016-06-27T00:45:03.873Z,0
2016-06-27T00:46:02.508Z,0
2016-06-27T00:47:03.222Z,0
2016-06-27T00:48:02.528Z,0
2016-06-27T00:49:03.790Z,0
2016-06-27T00:50:03.764Z,0
2016-06-27T00:51:03.223Z,0
2016-06-27T00:52:03.178Z,0
2016-06-27T00:53:01.999Z,0
2016-06-27T00:54:03.270Z,0
2016-06-27T00:55:03.814Z,0
2016-06-27T00:56:03.969Z,0
2016-06-27T00:57:02.579Z,0
2016-06-27T00:58:02.980Z,0
2016-06-27T00:59:02.558Z,0
2016-06-27T01:00:03.975Z,0
2016-06-27T01:01:01.987Z,0
2016-06-27T01:02:03.843Z,0
2016-06-27T01:03:03.241Z,0
2016-06-27T01:04:03.842Z,0
2016-06-27T01:05:02.662Z,0
2016-06-27T01:06:02.622Z,0
2016-06-27T01:07:04.581Z,0
2016-06-27T01:08:03.308Z,0
2016-06-27T01:09:04.150Z,0
2016-06-27T01:10:02.637Z,0
2016-06-27T01:11:02.672Z,0
2016-06-27T01:12:03.286Z,0
2016-06-27T01:13:02.644Z,0
2016-06-27T01:14:03.921Z,0
2016-06-27T01:15:03.257Z,0
2016-06-27T01:16:05.068Z,0
2016-06-27T01:17:02.047Z,0
2016-06-27T01:18:02.754Z,0
2016-06-27T01:19:03.335Z,0
2016-06-27T01:20:03.891Z,0
2016-06-27T01:21:04.077Z,0
2016-06-27T01:22:03.318Z,0
2016-06-27T01:23:04.284Z,0
2016-06-27T01:24:03.311Z,0
2016-06-27T01:25:05.407Z,0
2016-06-27T01:26:02.143Z,0
2016-06-27T01:27:02.731Z,0
2016-06-27T01:28:03.396Z,0
2016-06-27T01:29:03.944Z,0
2016-06-27T01:30:03.802Z,0
2016-06-27T01:31:04.057Z,0
2016-06-27T01:32:04.897Z,0
2016-06-27T01:33:03.365Z,0
2016-06-27T01:34:01.578Z,0
2016-06-27T01:35:02.872Z,0
2016-06-27T01:36:02.753Z,0
2016-06-27T01:37:02.338Z,0
2016-06-27T01:38:02.792Z,0
2016-06-27T01:39:15.202Z,0
2016-06-27T01:40:04.358Z,0
2016-06-27T01:41:02.637Z,0
2016-06-27T01:42:03.549Z,0
2016-06-27T01:43:03.406Z,0
2016-06-27T01:44:03.405Z,0
2016-06-27T01:45:04.023Z,0
2016-06-27T01:46:04.660Z,0
2016-06-27T01:47:03.442Z,0
2016-06-27T01:48:04.214Z,0
2016-06-27T01:49:03.551Z,0
2016-06-27T01:50:02.220Z,0
2016-06-27T01:51:04.139Z,0
2016-06-27T01:52:04.144Z,0
2016-06-27T01:53:03.675Z,0
2016-06-27T01:54:02.842Z,0
2016-06-27T01:55:05.182Z,0
2016-06-27T01:56:03.037Z,0
2016-06-27T01:57:04.278Z,0
2016-06-27T01:58:03.572Z,0
2016-06-27T01:59:02.240Z,0
2016-06-27T02:00:02.993Z,0
2016-06-27T02:01:03.474Z,0
2016-06-27T02:02:05.685Z,0
2016-06-27T02:03:03.526Z,0
2016-06-27T02:04:04.156Z,0
2016-06-27T02:05:04.234Z,0
2016-06-27T02:06:02.267Z,0
2016-06-27T02:07:04.196Z,0
2016-06-27T02:08:02.855Z,0
2016-06-27T02:09:03.879Z,0
2016-06-27T02:10:03.521Z,0
2016-06-27T02:11:05.051Z,0
2016-06-27T02:12:04.258Z,0
2016-06-27T02:13:03.523Z,0
2016-06-27T02:14:04.299Z,0
2016-06-27T02:15:03.631Z,0
2016-06-27T02:16:03.067Z,0
2016-06-27T02:17:02.942Z,0
2016-06-27T02:18:04.208Z,0
2016-06-27T02:19:04.264Z,0
2016-06-27T02:20:02.976Z,0
2016-06-27T02:21:04.399Z,0
2016-06-27T02:22:03.629Z,0
2016-06-27T02:23:05.156Z,0
2016-06-27T02:24:04.387Z,0
2016-06-27T02:25:04.835Z,0
2016-06-27T02:26:01.759Z,0
2016-06-27T02:27:03.582Z,0
2016-06-27T02:28:02.533Z,0
2016-06-27T02:29:03.737Z,0
2016-06-27T02:30:05.166Z,0
2016-06-27T02:31:03.776Z,0
2016-06-27T02:32:04.817Z,0
2016-06-27T02:33:03.675Z,0
2016-06-27T02:34:03.189Z,0
2016-06-27T02:35:03.753Z,0
2016-06-27T02:36:03.685Z,0
2016-06-27T02:37:05.385Z,0
2016-06-27T02:38:04.385Z,0
2016-06-27T02:39:02.538Z,0
2016-06-27T02:40:02.572Z,0
2016-06-27T02:41:03.033Z,0
2016-06-27T02:42:03.786Z,0
2016-06-27T02:43:03.787Z,0
2016-06-27T02:44:06.268Z,0
2016-06-27T02:45:03.785Z,0
2016-06-27T02:46:03.857Z,0
2016-06-27T02:47:04.500Z,0
2016-06-27T02:48:02.466Z,0
2016-06-27T02:49:04.449Z,0
2016-06-27T02:50:03.871Z,0
2016-06-27T02:51:05.599Z,0
2016-06-27T02:52:03.848Z,0
2016-06-27T02:53:03.878Z,0
2016-06-27T02:54:04.055Z,0
2016-06-27T02:55:04.510Z,0
2016-06-27T02:56:05.175Z,0
2016-06-27T02:57:04.498Z,0
2016-06-27T02:58:04.601Z,0
2016-06-27T02:59:03.851Z,0
2016-06-27T03:00:03.735Z,0
2016-06-27T03:01:03.825Z,0
2016-06-27T03:02:03.230Z,0
2016-06-27T03:03:04.806Z,0
2016-06-27T03:04:03.337Z,0
2016-06-27T03:05:02.508Z,0
2016-06-27T03:06:04.595Z,0
2016-06-27T03:07:04.589Z,0
2016-06-27T03:08:04.649Z,0
2016-06-27T03:09:03.879Z,0
2016-06-27T03:10:04.578Z,0
2016-06-27T03:11:03.249Z,0
2016-06-27T03:12:04.454Z,0
2016-06-27T03:13:04.523Z,0
2016-06-27T03:14:03.255Z,0
2016-06-27T03:15:05.960Z,0
2016-06-27T03:16:03.281Z,0
2016-06-27T03:17:03.316Z,0
2016-06-27T03:18:02.703Z,0
2016-06-27T03:19:02.683Z,0
2016-06-27T03:20:02.729Z,0
2016-06-27T03:21:03.908Z,0
2016-06-27T03:22:04.079Z,0
2016-06-27T03:23:03.418Z,0
2016-06-27T03:24:04.603Z,0
2016-06-27T03:25:03.969Z,0
2016-06-27T03:26:03.949Z,0
2016-06-27T03:27:05.391Z,5
2016-06-27T03:28:03.984Z,5
2016-06-27T03:29:05.307Z,5
2016-06-27T03:30:04.075Z,5
2016-06-27T03:31:03.998Z,5
2016-06-27T03:32:04.585Z,5
2016-06-27T03:33:04.622Z,5
2016-06-27T03:34:05.078Z,5
2016-06-27T03:35:04.070Z,5
2016-06-27T03:36:03.459Z,5
2016-06-27T03:37:04.125Z,5
2016-06-27T03:38:03.356Z,5
2016-06-27T03:39:05.141Z,5
2016-06-27T03:40:04.087Z,5
2016-06-27T03:41:05.590Z,10
2016-06-27T03:42:04.011Z,10
2016-06-27T03:43:04.070Z,10
2016-06-27T03:44:04.230Z,10
2016-06-27T03:45:04.163Z,10
2016-06-27T03:46:05.264Z,10
2016-06-27T03:47:04.730Z,10
2016-06-27T03:48:04.754Z,10
2016-06-27T03:49:03.392Z,10
2016-06-27T03:50:04.079Z,10
2016-06-27T03:51:05.023Z,15
2016-06-27T03:52:04.024Z,15
2016-06-27T03:53:04.141Z,15
2016-06-27T03:54:03.458Z,15
2016-06-27T03:55:03.537Z,15
2016-06-27T03:56:04.192Z,15
2016-06-27T03:57:04.077Z,15
2016-06-27T03:58:03.391Z,15
2016-06-27T03:59:04.674Z,15
2016-06-27T04:00:04.103Z,20
2016-06-27T04:01:04.219Z,20
2016-06-27T04:02:04.127Z,20
2016-06-27T04:03:04.756Z,20
2016-06-27T04:04:03.527Z,20
2016-06-27T04:05:04.966Z,20
2016-06-27T04:06:04.223Z,20
2016-06-27T04:07:04.211Z,20
2016-06-27T04:08:05.614Z,20
2016-06-27T04:09:04.187Z,25
2016-06-27T04:10:04.266Z,25
2016-06-27T04:11:03.547Z,25
2016-06-27T04:12:04.151Z,25
2016-06-27T04:13:04.847Z,25
2016-06-27T04:14:04.803Z,25
2016-06-27T04:15:04.199Z,25
2016-06-27T04:16:04.179Z,25
2016-06-27T04:17:04.754Z,30
2016-06-27T04:18:04.232Z,30
2016-06-27T04:19:04.887Z,30
2016-06-27T04:20:05.919Z,30
2016-06-27T04:21:04.229Z,30
2016-06-27T04:22:03.523Z,30
2016-06-27T04:23:03.670Z,35
2016-06-27T04:24:03.656Z,35
2016-06-27T04:25:06.399Z,35
2016-06-27T04:26:04.220Z,35
2016-06-27T04:27:03.591Z,35
2016-06-27T04:28:03.629Z,35
2016-06-27T04:29:04.221Z,40
2016-06-27T04:30:04.372Z,40
2016-06-27T04:31:04.179Z,40
2016-06-27T04:32:04.415Z,40
2016-06-27T04:33:04.396Z,45
2016-06-27T04:34:04.887Z,45
2016-06-27T04:35:04.857Z,45
2016-06-27T04:36:04.970Z,50
2016-06-27T04:37:04.963Z,50
2016-06-27T04:38:03.935Z,50
2016-06-27T04:39:04.306Z,50
2016-06-27T04:40:04.361Z,50
2016-06-27T04:41:04.973Z,55
2016-06-27T04:42:05.031Z,60
2016-06-27T04:43:05.889Z,65
2016-06-27T04:44:03.631Z,55
2016-06-27T04:45:04.224Z,55
2016-06-27T04:46:04.911Z,55
2016-06-27T04:47:03.629Z,55
2016-06-27T04:48:05.582Z,55
2016-06-27T04:49:04.998Z,60
2016-06-27T04:50:04.386Z,65
2016-06-27T04:51:05.074Z,70
2016-06-27T04:52:04.459Z,80
2016-06-27T04:53:04.728Z,75
2016-06-27T04:54:03.680Z,105
2016-06-27T04:55:03.855Z,170
2016-06-27T04:56:03.676Z,175
2016-06-27T04:57:05.006Z,405
2016-06-27T04:58:05.677Z,215
2016-06-27T04:59:04.393Z,125
2016-06-27T05:00:04.478Z,100
2016-06-27T05:01:05.225Z,80
2016-06-27T05:02:05.025Z,75
2016-06-27T05:03:03.691Z,105
2016-06-27T05:04:05.043Z,70
2016-06-27T05:05:05.229Z,80
2016-06-27T05:06:06.545Z,60
2016-06-27T05:07:05.001Z,60
2016-06-27T05:08:05.214Z,60
2016-06-27T05:09:03.675Z,65
2016-06-27T05:10:03.095Z,60
2016-06-27T05:11:03.275Z,65
2016-06-27T05:12:04.012Z,65
2016-06-27T05:13:05.047Z,70
2016-06-27T05:14:03.257Z,95
2016-06-27T05:15:04.605Z,100
2016-06-27T05:16:05.771Z,130
2016-06-27T05:17:03.862Z,200
2016-06-27T05:18:03.742Z,340
2016-06-27T05:19:05.122Z,455
2016-06-27T05:20:04.402Z,645
2016-06-27T05:21:03.849Z,700
2016-06-27T05:22:05.055Z,670
2016-06-27T05:23:05.126Z,660
2016-06-27T05:24:06.138Z,675
2016-06-27T05:25:05.113Z,695
2016-06-27T05:26:04.574Z,695
2016-06-27T05:27:04.410Z,675
2016-06-27T05:28:03.823Z,670
2016-06-27T05:29:09.780Z,710
2016-06-27T05:30:05.238Z,730
2016-06-27T05:31:03.751Z,755
2016-06-27T05:32:06.291Z,795
2016-06-27T05:33:03.502Z,790
2016-06-27T05:34:04.610Z,730
2016-06-27T05:35:06.430Z,710
2016-06-27T05:36:03.954Z,750
2016-06-27T05:37:05.119Z,745
2016-06-27T05:38:05.156Z,750
2016-06-27T05:39:05.261Z,775
2016-06-27T05:40:04.685Z,785
2016-06-27T05:41:03.931Z,770
2016-06-27T05:42:05.141Z,800
2016-06-27T05:43:04.632Z,835
2016-06-27T05:44:04.756Z,855
2016-06-27T05:45:04.555Z,850
2016-06-27T05:46:05.470Z,875
2016-06-27T05:47:04.712Z,910
2016-06-27T05:48:04.614Z,970
2016-06-27T05:49:04.653Z,980
2016-06-27T05:50:04.621Z,895
2016-06-27T05:51:05.339Z,855
2016-06-27T05:52:04.715Z,900
2016-06-27T05:53:03.399Z,935
2016-06-27T05:54:05.435Z,990
2016-06-27T05:55:04.794Z,1020
2016-06-27T05:56:05.504Z,950
2016-06-27T05:57:04.867Z,915
2016-06-27T05:58:04.719Z,960
2016-06-27T05:59:04.087Z,1030
2016-06-27T06:00:03.545Z,1055
2016-06-27T06:01:05.381Z,990
2016-06-27T06:02:06.641Z,980
2016-06-27T06:03:05.468Z,1020
2016-06-27T06:04:05.489Z,1060
2016-06-27T06:05:06.078Z,1070
2016-06-27T06:06:04.127Z,1060
2016-06-27T06:07:04.198Z,1085
2016-06-27T06:08:04.550Z,1120
2016-06-27T06:09:04.219Z,1115
2016-06-27T06:10:04.242Z,1055
2016-06-27T06:11:04.271Z,1095
2016-06-27T06:12:05.077Z,740
2016-06-27T06:13:04.878Z,575
2016-06-27T06:14:06.609Z,450
2016-06-27T06:15:05.592Z,730
2016-06-27T06:16:05.566Z,575
2016-06-27T06:17:05.182Z,390
2016-06-27T06:18:05.013Z,550
2016-06-27T06:19:05.550Z,395
2016-06-27T06:20:05.693Z,765
2016-06-27T06:21:04.390Z,460
2016-06-27T06:22:05.645Z,375
2016-06-27T06:23:04.769Z,270
2016-06-27T06:24:05.085Z,260
2016-06-27T06:25:04.406Z,240
2016-06-27T06:26:05.013Z,195
2016-06-27T06:27:05.102Z,155
2016-06-27T06:28:05.589Z,125
2016-06-27T06:29:04.979Z,110
2016-06-27T06:30:05.733Z,105
2016-06-27T06:31:05.564Z,105
2016-06-27T06:32:05.147Z,110
2016-06-27T06:33:05.015Z,115
2016-06-27T06:34:05.695Z,135
2016-06-27T06:35:05.696Z,175
2016-06-27T06:36:05.824Z,250
2016-06-27T06:37:05.871Z,205
2016-06-27T06:38:05.114Z,220
2016-06-27T06:39:36.362Z,370
2016-06-27T06:40:05.227Z,340
2016-06-27T06:41:04.543Z,385
2016-06-27T06:42:05.684Z,440
2016-06-27T06:43:05.269Z,360
2016-06-27T06:44:05.131Z,370
2016-06-27T06:45:05.678Z,470
2016-06-27T06:46:05.097Z,715
2016-06-27T06:47:05.696Z,500
2016-06-27T06:48:04.002Z,385
2016-06-27T06:49:04.522Z,355
2016-06-27T06:50:05.654Z,290
2016-06-27T06:51:05.761Z,370
2016-06-27T06:52:04.803Z,295
2016-06-27T06:53:04.538Z,220
2016-06-27T06:54:05.055Z,155
2016-06-27T06:55:05.984Z,145
2016-06-27T06:56:05.170Z,140
2016-06-27T06:57:04.497Z,150
2016-06-27T06:58:05.234Z,150
2016-06-27T06:59:05.471Z,130
2016-06-27T07:00:05.292Z,130
2016-06-27T07:01:03.951Z,110
2016-06-27T07:02:05.423Z,110
2016-06-27T07:03:05.338Z,95
2016-06-27T07:04:04.565Z,115
2016-06-27T07:05:04.564Z,145
2016-06-27T07:06:05.963Z,130
2016-06-27T07:07:05.459Z,125
2016-06-27T07:08:05.948Z,125
2016-06-27T07:09:04.646Z,145
2016-06-27T07:10:04.579Z,190
2016-06-27T07:11:05.758Z,170
2016-06-27T07:12:05.314Z,320
2016-06-27T07:13:05.906Z,355
2016-06-27T07:14:05.342Z,515
2016-06-27T07:15:04.743Z,195
2016-06-27T07:16:05.950Z,920
2016-06-27T07:17:05.898Z,220
2016-06-27T07:18:06.102Z,1510
2016-06-27T07:19:06.135Z,1515
2016-06-27T07:20:05.928Z,1540
2016-06-27T07:21:05.530Z,410
2016-06-27T07:22:05.371Z,465
2016-06-27T07:23:04.766Z,1760
2016-06-27T07:24:06.086Z,1770
2016-06-27T07:25:06.035Z,1590
2016-06-27T07:26:04.698Z,1385
2016-06-27T07:27:04.744Z,1030
2016-06-27T07:28:05.410Z,175
2016-06-27T07:29:05.453Z,125
2016-06-27T07:30:05.445Z,355
2016-06-27T07:31:05.369Z,135
2016-06-27T07:32:05.531Z,1390
2016-06-27T07:33:05.457Z,1005
2016-06-27T07:34:06.074Z,220
2016-06-27T07:35:04.753Z,415
2016-06-27T07:36:04.706Z,605
2016-06-27T07:37:06.027Z,745
2016-06-27T07:38:05.527Z,330
2016-06-27T07:39:05.807Z,255
2016-06-27T07:40:05.591Z,275
2016-06-27T07:41:05.993Z,275
2016-06-27T07:42:05.514Z,225
2016-06-27T07:43:04.806Z,185
2016-06-27T07:44:05.565Z,170
2016-06-27T07:45:06.598Z,135
2016-06-27T07:46:05.391Z,115
2016-06-27T07:47:05.613Z,95
2016-06-27T07:48:04.813Z,90
2016-06-27T07:49:06.476Z,85
2016-06-27T07:50:06.188Z,80
2016-06-27T07:51:06.081Z,80
2016-06-27T07:52:05.402Z,75
2016-06-27T07:53:06.283Z,80
2016-06-27T07:54:05.558Z,80
2016-06-27T07:55:04.890Z,80
2016-06-27T07:56:05.595Z,85
2016-06-27T07:57:05.665Z,105
2016-06-27T07:58:06.220Z,95
2016-06-27T07:59:05.591Z,105
2016-06-27T08:00:06.115Z,110
2016-06-27T08:01:05.160Z,105
2016-06-27T08:02:05.541Z,95
2016-06-27T08:03:04.896Z,100
2016-06-27T08:04:06.088Z,95
2016-06-27T08:05:06.277Z,90
2016-06-27T08:06:05.626Z,85
2016-06-27T08:07:04.933Z,75
2016-06-27T08:08:06.207Z,90
2016-06-27T08:09:16.081Z,105
2016-06-27T08:10:06.335Z,125
2016-06-27T08:11:05.825Z,130
2016-06-27T08:12:04.300Z,110
2016-06-27T08:13:05.075Z,90
2016-06-27T08:14:05.027Z,80
2016-06-27T08:15:05.703Z,70
2016-06-27T08:16:06.442Z,75
2016-06-27T08:17:04.907Z,80
2016-06-27T08:18:06.266Z,105
2016-06-27T08:19:05.110Z,140
2016-06-27T08:20:05.563Z,190
2016-06-27T08:21:05.722Z,185
2016-06-27T08:22:04.958Z,210
2016-06-27T08:23:04.966Z,175
2016-06-27T08:24:05.607Z,150
2016-06-27T08:25:06.699Z,165
2016-06-27T08:26:04.979Z,160
2016-06-27T08:27:05.695Z,155
2016-06-27T08:28:05.624Z,155
2016-06-27T08:29:05.682Z,140
2016-06-27T08:30:06.301Z,135
2016-06-27T08:31:05.755Z,120
2016-06-27T08:32:05.747Z,110
2016-06-27T08:33:05.779Z,110
2016-06-27T08:34:05.796Z,100
2016-06-27T08:35:06.259Z,90
2016-06-27T08:36:06.429Z,85
2016-06-27T08:37:04.511Z,75
2016-06-27T08:38:05.709Z,70
2016-06-27T08:39:16.287Z,70
2016-06-27T08:40:05.151Z,65
2016-06-27T08:41:06.409Z,65
2016-06-27T08:42:06.539Z,65
2016-06-27T08:43:06.380Z,60
2016-06-27T08:44:05.803Z,60
2016-06-27T08:45:04.607Z,60
2016-06-27T08:46:06.018Z,70
2016-06-27T08:47:05.738Z,70
2016-06-27T08:48:06.433Z,65
2016-06-27T08:49:05.243Z,65
2016-06-27T08:50:05.842Z,65
2016-06-27T08:51:04.660Z,65
2016-06-27T08:52:05.845Z,65
2016-06-27T08:53:06.033Z,70
2016-06-27T08:54:06.446Z,65
2016-06-27T08:55:05.156Z,65
2016-06-27T08:56:06.567Z,70
2016-06-27T08:57:05.937Z,70
2016-06-27T08:58:05.794Z,65
2016-06-27T08:59:06.635Z,65
2016-06-27T09:00:05.848Z,75
2016-06-27T09:01:05.860Z,85
2016-06-27T09:02:06.595Z,95
2016-06-27T09:03:06.646Z,110
2016-06-27T09:04:05.365Z,105
2016-06-27T09:05:05.913Z,90
2016-06-27T09:06:05.887Z,80
2016-06-27T09:07:05.935Z,75
2016-06-27T09:08:06.126Z,80
2016-06-27T09:09:05.589Z,80
2016-06-27T09:10:05.995Z,85
2016-06-27T09:11:05.918Z,80
2016-06-27T09:12:05.266Z,80
2016-06-27T09:13:05.293Z,80
2016-06-27T09:14:05.470Z,85
2016-06-27T09:15:05.927Z,95
2016-06-27T09:16:06.018Z,95
2016-06-27T09:17:06.062Z,110
2016-06-27T09:18:06.577Z,110
2016-06-27T09:19:06.116Z,110
2016-06-27T09:20:06.654Z,120
2016-06-27T09:21:06.043Z,130
2016-06-27T09:22:05.986Z,105
2016-06-27T09:23:06.805Z,80
2016-06-27T09:24:06.123Z,65
2016-06-27T09:25:06.701Z,55
2016-06-27T09:26:06.730Z,50
2016-06-27T09:27:05.324Z,50
2016-06-27T09:28:06.030Z,55
2016-06-27T09:29:06.659Z,60
2016-06-27T09:30:05.347Z,65
2016-06-27T09:31:06.671Z,70
2016-06-27T09:32:05.039Z,70
2016-06-27T09:33:05.478Z,70
2016-06-27T09:34:06.095Z,65
2016-06-27T09:35:06.110Z,60
2016-06-27T09:36:06.759Z,70
2016-06-27T09:37:06.705Z,80
2016-06-27T09:38:06.073Z,85
2016-06-27T09:39:06.425Z,90
2016-06-27T09:40:05.981Z,95
2016-06-27T09:41:06.864Z,100
2016-06-27T09:42:05.590Z,95
2016-06-27T09:43:05.536Z,85
2016-06-27T09:44:04.873Z,90
2016-06-27T09:45:05.623Z,90
2016-06-27T09:46:06.261Z,85
2016-06-27T09:47:06.147Z,85
2016-06-27T09:48:05.530Z,85
2016-06-27T09:49:05.494Z,85
2016-06-27T09:50:06.141Z,85
2016-06-27T09:51:06.837Z,85
2016-06-27T09:52:06.117Z,90
2016-06-27T09:53:06.770Z,95
2016-06-27T09:54:06.181Z,100
2016-06-27T09:55:06.771Z,115
2016-06-27T09:56:04.237Z,120
2016-06-27T09:57:05.576Z,120
2016-06-27T09:58:05.558Z,105
2016-06-27T09:59:06.246Z,105
2016-06-27T10:00:06.173Z,95
2016-06-27T10:01:06.785Z,95
2016-06-27T10:02:06.231Z,100
2016-06-27T10:03:05.543Z,110
2016-06-27T10:04:06.171Z,125
2016-06-27T10:05:05.690Z,115
2016-06-27T10:06:05.739Z,115
2016-06-27T10:07:06.386Z,105
2016-06-27T10:08:06.923Z,95
2016-06-27T10:09:06.289Z,90
2016-06-27T10:10:06.240Z,85
2016-06-27T10:11:06.985Z,95
2016-06-27T10:12:05.559Z,110
2016-06-27T10:13:05.575Z,120
2016-06-27T10:14:05.660Z,145
2016-06-27T10:15:06.170Z,155
2016-06-27T10:16:06.919Z,140
2016-06-27T10:17:06.250Z,120
2016-06-27T10:18:06.222Z,110
2016-06-27T10:19:06.311Z,110
2016-06-27T10:20:06.382Z,105
2016-06-27T10:21:06.863Z,100
2016-06-27T10:22:06.416Z,105
2016-06-27T10:23:06.226Z,110
2016-06-27T10:24:05.337Z,100
2016-06-27T10:25:06.430Z,90
2016-06-27T10:26:05.643Z,80
2016-06-27T10:27:06.345Z,75
2016-06-27T10:28:07.046Z,75
2016-06-27T10:29:05.028Z,75
2016-06-27T10:30:06.339Z,70
2016-06-27T10:31:05.116Z,75
2016-06-27T10:32:05.096Z,85
2016-06-27T10:33:06.427Z,85
2016-06-27T10:34:06.409Z,100
2016-06-27T10:35:07.041Z,100
2016-06-27T10:36:05.737Z,95
2016-06-27T10:37:06.316Z,90
2016-06-27T10:38:05.754Z,90
2016-06-27T10:39:07.079Z,85
2016-06-27T10:40:05.787Z,75
2016-06-27T10:41:06.405Z,75
2016-06-27T10:42:07.063Z,80
2016-06-27T10:43:06.411Z,80
2016-06-27T10:44:07.039Z,85
2016-06-27T10:45:07.099Z,90
2016-06-27T10:46:06.639Z,85
2016-06-27T10:47:06.579Z,80
2016-06-27T10:48:05.802Z,80
2016-06-27T10:49:06.508Z,80
2016-06-27T10:50:07.058Z,70
2016-06-27T10:51:05.276Z,65
2016-06-27T10:52:07.140Z,65
2016-06-27T10:53:06.457Z,60
2016-06-27T10:54:06.524Z,50
2016-06-27T10:55:05.312Z,50
2016-06-27T10:56:06.470Z,50
2016-06-27T10:57:06.511Z,55
2016-06-27T10:58:05.215Z,65
2016-06-27T10:59:05.190Z,70
2016-06-27T11:00:07.263Z,65
2016-06-27T11:01:06.584Z,70
2016-06-27T11:02:05.837Z,75
2016-06-27T11:03:06.483Z,90
2016-06-27T11:04:06.524Z,95
2016-06-27T11:05:07.088Z,100
2016-06-27T11:06:06.471Z,100
2016-06-27T11:07:05.831Z,95
2016-06-27T11:08:06.484Z,80
2016-06-27T11:09:06.636Z,80
2016-06-27T11:10:06.518Z,80
2016-06-27T11:11:05.308Z,75
2016-06-27T11:12:05.912Z,85
2016-06-27T11:13:07.221Z,85
2016-06-27T11:14:05.272Z,85
2016-06-27T11:15:05.305Z,85
2016-06-27T11:16:05.918Z,80
2016-06-27T11:17:06.506Z,90
2016-06-27T11:18:07.196Z,85
2016-06-27T11:19:06.566Z,75
2016-06-27T11:21:07.174Z,70
2016-06-27T11:22:06.682Z,70
2016-06-27T11:23:06.560Z,75
2016-06-27T11:24:06.549Z,80
2016-06-27T11:25:06.577Z,95
2016-06-27T11:26:05.375Z,115
2016-06-27T11:27:07.195Z,125
2016-06-27T11:28:05.983Z,130
2016-06-27T11:29:05.348Z,135
2016-06-27T11:30:07.229Z,135
2016-06-27T11:31:07.198Z,130
2016-06-27T11:32:06.607Z,125
2016-06-27T11:33:05.394Z,115
2016-06-27T11:34:06.639Z,105
2016-06-27T11:35:07.282Z,90
2016-06-27T11:36:06.638Z,80
2016-06-27T11:37:06.035Z,75
2016-06-27T11:38:06.018Z,80
2016-06-27T11:39:07.268Z,90
2016-06-27T11:40:06.621Z,85
2016-06-27T11:41:06.651Z,105
2016-06-27T11:42:06.678Z,105
2016-06-27T11:43:06.047Z,120
2016-06-27T11:44:07.293Z,125
2016-06-27T11:45:06.118Z,115
2016-06-27T11:46:06.692Z,130
2016-06-27T11:47:06.194Z,125
2016-06-27T11:48:07.370Z,115
2016-06-27T11:49:06.113Z,125
2016-06-27T11:50:07.366Z,105
2016-06-27T11:51:05.471Z,105
2016-06-27T11:52:06.717Z,100
2016-06-27T11:53:06.712Z,95
2016-06-27T11:54:07.335Z,75
2016-06-27T11:55:07.361Z,70
2016-06-27T11:56:06.110Z,70
2016-06-27T11:57:06.722Z,65
2016-06-27T11:58:05.511Z,70
2016-06-27T11:59:06.756Z,65
2016-06-27T12:00:06.159Z,70
2016-06-27T12:01:06.770Z,70
2016-06-27T12:02:06.203Z,65
2016-06-27T12:03:06.782Z,60
2016-06-27T12:04:06.982Z,65
2016-06-27T12:05:07.394Z,65
2016-06-27T12:06:07.438Z,65
2016-06-27T12:07:06.806Z,75
2016-06-27T12:08:07.411Z,85
2016-06-27T12:09:21.070Z,90
2016-06-27T12:10:06.820Z,95
2016-06-27T12:11:06.855Z,90
2016-06-27T12:12:06.207Z,85
2016-06-27T12:13:06.822Z,100
2016-06-27T12:14:07.464Z,90
2016-06-27T12:15:05.601Z,80
2016-06-27T12:16:06.864Z,70
2016-06-27T12:17:06.240Z,65
2016-06-27T12:18:06.218Z,60
2016-06-27T12:19:06.255Z,65
2016-06-27T12:20:05.622Z,70
2016-06-27T12:21:06.890Z,80
2016-06-27T12:22:06.891Z,95
2016-06-27T12:23:06.882Z,105
2016-06-27T12:24:06.901Z,100
2016-06-27T12:25:06.898Z,100
2016-06-27T12:26:06.897Z,80
2016-06-27T12:27:07.541Z,70
2016-06-27T12:28:07.534Z,65
2016-06-27T12:29:06.923Z,60
2016-06-27T12:30:06.318Z,60
2016-06-27T12:31:05.711Z,50
2016-06-27T12:32:07.602Z,45
2016-06-27T12:33:06.930Z,50
2016-06-27T12:34:06.935Z,50
2016-06-27T12:35:07.550Z,55
2016-06-27T12:36:06.988Z,50
2016-06-27T12:37:06.979Z,50
2016-06-27T12:38:07.609Z,50
2016-06-27T12:39:05.877Z,55
2016-06-27T12:40:06.977Z,55
2016-06-27T12:41:06.382Z,65
2016-06-27T12:42:07.646Z,70
2016-06-27T12:43:06.422Z,55
2016-06-27T12:44:06.375Z,45
2016-06-27T12:45:08.191Z,45
2016-06-27T12:46:07.697Z,45
2016-06-27T12:47:07.652Z,45
2016-06-27T12:48:07.711Z,45
2016-06-27T12:49:07.737Z,45
2016-06-27T12:50:07.034Z,45
2016-06-27T12:51:07.050Z,45
2016-06-27T12:52:07.653Z,55
2016-06-27T12:53:06.472Z,60
2016-06-27T12:54:05.804Z,60
2016-06-27T12:55:07.668Z,55
2016-06-27T12:56:06.695Z,65
2016-06-27T12:57:06.457Z,60
2016-06-27T12:58:06.511Z,60
2016-06-27T12:59:07.106Z,55
2016-06-27T13:00:07.083Z,55
2016-06-27T13:01:05.858Z,55
2016-06-27T13:02:07.088Z,50
2016-06-27T13:03:06.475Z,50
2016-06-27T13:04:07.734Z,50
2016-06-27T13:05:07.112Z,55
2016-06-27T13:06:07.114Z,65
2016-06-27T13:07:07.126Z,75
2016-06-27T13:08:07.715Z,75
2016-06-27T13:09:20.720Z,85
2016-06-27T13:10:07.137Z,85
2016-06-27T13:11:06.547Z,90
2016-06-27T13:12:07.122Z,100
2016-06-27T13:13:07.137Z,105
2016-06-27T13:14:07.144Z,105
2016-06-27T13:15:06.539Z,100
2016-06-27T13:16:07.781Z,85
2016-06-27T13:17:07.146Z,70
2016-06-27T13:18:07.783Z,55
2016-06-27T13:19:06.547Z,50
2016-06-27T13:20:05.923Z,45
2016-06-27T13:21:07.185Z,45
2016-06-27T13:22:07.189Z,35
2016-06-27T13:23:07.819Z,35
2016-06-27T13:24:07.205Z,45
2016-06-27T13:25:06.581Z,40
2016-06-27T13:26:07.871Z,40
2016-06-27T13:27:06.667Z,45
2016-06-27T13:28:06.901Z,50
2016-06-27T13:29:06.816Z,50
2016-06-27T13:30:06.614Z,50
2016-06-27T13:31:07.282Z,50
2016-06-27T13:32:06.626Z,50
2016-06-27T13:33:07.233Z,45
2016-06-27T13:34:07.856Z,40
2016-06-27T13:35:06.629Z,45
2016-06-27T13:36:06.652Z,45
2016-06-27T13:37:06.062Z,50
2016-06-27T13:38:07.373Z,60
2016-06-27T13:39:07.310Z,65
2016-06-27T13:40:07.266Z,60
2016-06-27T13:41:07.286Z,55
2016-06-27T13:42:07.906Z,60
2016-06-27T13:43:06.681Z,60
2016-06-27T13:44:07.406Z,60
2016-06-27T13:45:07.959Z,65
2016-06-27T13:46:06.724Z,65
2016-06-27T13:47:07.571Z,65
2016-06-27T13:48:07.969Z,65
2016-06-27T13:49:08.110Z,65
2016-06-27T13:50:06.696Z,65
2016-06-27T13:51:06.229Z,60
2016-06-27T13:52:06.716Z,60
2016-06-27T13:53:07.348Z,55
2016-06-27T13:54:06.714Z,60
2016-06-27T13:55:06.740Z,60
2016-06-27T13:56:06.144Z,60
2016-06-27T13:57:06.744Z,60
2016-06-27T13:58:07.618Z,60
2016-06-27T13:59:07.987Z,55
2016-06-27T14:00:06.144Z,55
2016-06-27T14:01:07.391Z,50
2016-06-27T14:02:06.766Z,55
2016-06-27T14:03:07.991Z,60
2016-06-27T14:04:07.388Z,55
2016-06-27T14:05:06.778Z,55
2016-06-27T14:06:06.175Z,60
2016-06-27T14:07:07.408Z,60
2016-06-27T14:08:07.430Z,60
2016-06-27T14:09:06.796Z,65
2016-06-27T14:10:07.461Z,65
2016-06-27T14:11:08.047Z,55
2016-06-27T14:12:07.429Z,50
2016-06-27T14:13:07.424Z,55
2016-06-27T14:14:07.449Z,70